Time;durP1;ratioP1;P1;durP2;ratioP2;P2;SDS_P1;SDS_P2;PMS_P1;PMS_P2;Temp;Humidity;BMP_temperature;BMP_pressure;BME280_temperature;BME280_humidity;BME280_pressure;Samples;Min_cycle;Max_cycle;Signal;HPM_P1;HPM_P2
2021/11/18 00:00:24;;;;;;;79.00;46.72;;;9.30;99.90;;;;;;4992400;28;20117;-54
2021/11/18 00:02:51;;;;;;;78.60;47.63;;;9.20;99.90;;;;;;4963254;28;20034;-56
2021/11/18 00:05:19;;;;;;;75.65;46.58;;;9.10;99.90;;;;;;5014322;28;20029;-54
2021/11/18 00:07:47;;;;;;;77.63;46.40;;;9.10;99.90;;;;;;5013843;28;20026;-55
2021/11/18 00:10:20;;;;;;;79.30;47.45;;;9.20;99.90;;;;;;5013769;28;20026;-56
2021/11/18 00:12:47;;;;;;;77.25;45.92;;;9.20;99.90;;;;;;5013532;28;20045;-56
2021/11/18 00:15:14;;;;;;;74.38;47.35;;;9.20;99.90;;;;;;5013948;28;20109;-55
2021/11/18 00:17:40;;;;;;;74.30;46.15;;;9.30;99.90;;;;;;5015523;28;20586;-55
2021/11/18 00:20:09;;;;;;;77.00;47.13;;;9.30;99.90;;;;;;5030801;28;20112;-55
2021/11/18 00:22:35;;;;;;;83.68;49.28;;;9.30;99.90;;;;;;5045600;28;20032;-55
2021/11/18 00:25:01;;;;;;;77.45;46.65;;;9.40;99.90;;;;;;5053275;28;20052;-56
2021/11/18 00:27:27;;;;;;;78.43;46.72;;;9.40;99.90;;;;;;5002078;28;20041;-55
2021/11/18 00:29:54;;;;;;;75.97;45.22;;;9.40;99.90;;;;;;5049247;28;20029;-57
2021/11/18 00:32:19;;;;;;;70.40;43.25;;;9.30;99.90;;;;;;5052665;28;20021;-56
2021/11/18 00:34:45;;;;;;;72.68;43.10;;;9.30;99.90;;;;;;5053125;28;20051;-55
2021/11/18 00:37:11;;;;;;;73.13;45.45;;;9.20;99.90;;;;;;5052999;28;20037;-56
2021/11/18 00:39:37;;;;;;;69.55;43.00;;;9.30;99.90;;;;;;5045772;28;20021;-55
2021/11/18 00:42:03;;;;;;;67.65;43.20;;;9.20;99.90;;;;;;5045493;28;21115;-57
2021/11/18 00:44:29;;;;;;;73.45;45.13;;;9.00;99.90;;;;;;5045038;28;20409;-56
2021/11/18 00:46:55;;;;;;;71.57;42.45;;;9.10;99.90;;;;;;5019408;28;20055;-57
2021/11/18 00:49:21;;;;;;;74.47;43.67;;;8.90;99.90;;;;;;5008937;28;20041;-56
2021/11/18 00:51:49;;;;;;;67.47;41.95;;;8.60;99.90;;;;;;5020572;28;20033;-56
2021/11/18 00:54:15;;;;;;;71.57;44.70;;;8.70;99.90;;;;;;5042548;28;20191;-55
2021/11/18 00:56:43;;;;;;;70.63;43.03;;;8.70;99.90;;;;;;5020851;28;20037;-57
2021/11/18 00:59:09;;;;;;;72.07;45.58;;;8.70;99.90;;;;;;5052881;28;20082;-56
2021/11/18 01:01:41;;;;;;;69.50;44.97;;;8.60;99.90;;;;;;5003768;28;20042;-56
2021/11/18 01:04:08;;;;;;;75.18;45.80;;;8.80;99.90;;;;;;4997858;28;20046;-55
2021/11/18 01:06:34;;;;;;;75.40;47.13;;;8.80;99.90;;;;;;4990853;28;20503;-55
2021/11/18 01:09:00;;;;;;;71.47;45.08;;;8.70;99.90;;;;;;4958569;28;20027;-57
2021/11/18 01:11:28;;;;;;;79.65;47.38;;;8.70;99.90;;;;;;4962513;28;20122;-55
2021/11/18 01:13:54;;;;;;;77.93;48.40;;;8.80;99.90;;;;;;4939419;28;20419;-55
2021/11/18 01:16:25;;;;;;;79.57;49.08;;;8.90;99.90;;;;;;4971591;28;20093;-55
2021/11/18 01:18:51;;;;;;;110.43;63.13;;;8.70;99.90;;;;;;4957105;28;20047;-55
2021/11/18 01:21:17;;;;;;;101.72;61.60;;;8.90;99.90;;;;;;4993972;28;20056;-57
2021/11/18 01:23:44;;;;;;;90.53;52.30;;;9.00;99.90;;;;;;4990912;28;20052;-56
2021/11/18 01:26:13;;;;;;;80.93;50.10;;;9.10;99.90;;;;;;4971481;28;20063;-55
2021/11/18 01:28:39;;;;;;;84.00;51.60;;;9.10;99.90;;;;;;4932917;29;20047;-57
2021/11/18 01:31:06;;;;;;;89.70;55.38;;;9.20;99.90;;;;;;4927937;29;20110;-55
2021/11/18 01:33:33;;;;;;;83.07;51.13;;;9.30;99.90;;;;;;4964952;28;20491;-56
2021/11/18 01:35:59;;;;;;;93.57;57.97;;;9.30;99.90;;;;;;4971441;28;20510;-56
2021/11/18 01:38:25;;;;;;;95.32;60.90;;;9.30;99.90;;;;;;4971140;28;20111;-55
2021/11/18 01:40:57;;;;;;;77.35;50.15;;;9.30;99.90;;;;;;4971326;28;20077;-56
2021/11/18 01:43:27;;;;;;;85.43;55.13;;;9.40;99.90;;;;;;4971229;28;20070;-56
2021/11/18 01:45:53;;;;;;;76.65;50.47;;;9.30;99.90;;;;;;4971249;28;20454;-56
2021/11/18 01:48:20;;;;;;;75.53;47.67;;;9.40;99.90;;;;;;4971103;28;20046;-54
2021/11/18 01:50:49;;;;;;;81.57;49.10;;;9.30;99.90;;;;;;4971264;28;20066;-56
2021/11/18 01:53:19;;;;;;;79.13;48.65;;;9.40;99.90;;;;;;4969319;28;20047;-56
2021/11/18 01:55:47;;;;;;;84.55;53.08;;;9.40;99.90;;;;;;4968214;28;20030;-55
2021/11/18 01:58:14;;;;;;;74.88;47.10;;;9.50;99.90;;;;;;4935950;28;20046;-55
2021/11/18 02:00:47;;;;;;;75.40;45.53;;;9.50;99.90;;;;;;5003013;28;20104;-55
2021/11/18 02:03:13;;;;;;;81.47;51.17;;;9.50;99.90;;;;;;5003784;28;20494;-54
2021/11/18 02:05:49;;;;;;;82.40;51.05;;;9.50;99.90;;;;;;5035227;28;20028;-56
2021/11/18 02:08:15;;;;;;;84.85;51.10;;;9.50;99.90;;;;;;5007436;28;20038;-54
2021/11/18 02:10:46;;;;;;;82.90;50.55;;;9.50;99.90;;;;;;5004890;28;20045;-55
2021/11/18 02:13:14;;;;;;;88.93;54.47;;;9.50;99.90;;;;;;5006340;28;20038;-55
2021/11/18 02:15:45;;;;;;;83.45;51.78;;;9.50;99.90;;;;;;5008853;28;20061;-55
2021/11/18 02:18:18;;;;;;;87.10;54.22;;;9.50;99.90;;;;;;5009275;28;20050;-54
2021/11/18 02:20:45;;;;;;;82.47;51.50;;;9.50;99.90;;;;;;4993213;28;20089;-56
2021/11/18 02:23:20;;;;;;;92.25;57.35;;;9.50;99.90;;;;;;4986852;28;20041;-55
2021/11/18 02:25:51;;;;;;;85.15;50.28;;;9.50;99.90;;;;;;4989417;28;20038;-55
2021/11/18 02:28:23;;;;;;;86.82;50.53;;;9.40;99.90;;;;;;4987698;28;20034;-54
2021/11/18 02:30:51;;;;;;;80.38;51.80;;;9.40;99.90;;;;;;4988956;28;20130;-55
2021/11/18 02:33:19;;;;;;;83.03;50.22;;;9.50;99.90;;;;;;4963628;28;20503;-55
2021/11/18 02:35:47;;;;;;;81.13;49.72;;;9.50;99.90;;;;;;4967897;28;20042;-56
2021/11/18 02:38:14;;;;;;;80.60;51.50;;;9.40;99.90;;;;;;4932872;28;20126;-55
2021/11/18 02:40:42;;;;;;;82.88;51.50;;;9.50;99.90;;;;;;4992282;28;20077;-55
2021/11/18 02:43:14;;;;;;;82.05;50.10;;;9.50;99.90;;;;;;4993542;28;20077;-54
2021/11/18 02:45:43;;;;;;;81.25;51.25;;;9.50;99.90;;;;;;4993506;28;20453;-55
2021/11/18 02:48:10;;;;;;;84.03;50.30;;;9.50;99.90;;;;;;4991357;28;20042;-55
2021/11/18 02:50:39;;;;;;;83.80;51.03;;;9.40;99.90;;;;;;4991348;28;20027;-55
2021/11/18 02:53:05;;;;;;;89.53;51.35;;;9.40;99.90;;;;;;4984483;28;20046;-55
2021/11/18 02:55:40;;;;;;;85.30;52.75;;;9.30;99.90;;;;;;4986088;28;20030;-54
2021/11/18 02:58:06;;;;;;;81.85;51.50;;;9.30;99.90;;;;;;4981808;28;20054;-55
2021/11/18 03:00:44;;;;;;;92.03;55.97;;;9.30;99.90;;;;;;4981196;28;20065;-54
2021/11/18 03:03:10;;;;;;;74.95;42.60;;;9.20;99.90;;;;;;4971727;28;20093;-55
2021/11/18 03:05:36;;;;;;;85.07;52.95;;;9.20;99.90;;;;;;5032789;28;20025;-56
2021/11/18 03:08:03;;;;;;;83.47;52.60;;;9.10;99.90;;;;;;5023386;28;20481;-55
2021/11/18 03:10:29;;;;;;;92.30;55.72;;;9.10;99.90;;;;;;4999855;28;20552;-55
2021/11/18 03:12:56;;;;;;;90.43;54.03;;;9.00;99.90;;;;;;5029030;28;20104;-55
2021/11/18 03:15:23;;;;;;;87.95;55.00;;;9.00;99.90;;;;;;5026203;28;20029;-56
2021/11/18 03:17:49;;;;;;;83.03;53.85;;;9.00;99.90;;;;;;4980118;28;20054;-56
2021/11/18 03:20:19;;;;;;;91.82;55.75;;;9.00;99.90;;;;;;5022185;28;20136;-55
2021/11/18 03:22:45;;;;;;;89.28;53.78;;;9.00;99.90;;;;;;5034484;28;20053;-56
2021/11/18 03:25:14;;;;;;;86.85;53.00;;;9.00;99.90;;;;;;5034523;28;20021;-54
2021/11/18 03:27:40;;;;;;;85.80;54.40;;;9.00;99.90;;;;;;5034534;28;20022;-55
2021/11/18 03:30:09;;;;;;;85.32;52.58;;;9.00;99.90;;;;;;5033459;28;20030;-54
2021/11/18 03:32:35;;;;;;;82.97;51.85;;;9.00;99.90;;;;;;4972127;28;20117;-55
2021/11/18 03:35:02;;;;;;;80.90;50.20;;;9.00;99.90;;;;;;4973206;28;20034;-56
2021/11/18 03:37:27;;;;;;;84.00;50.50;;;9.00;99.90;;;;;;4968936;28;20130;-53
2021/11/18 03:39:53;;;;;;;86.35;50.92;;;8.90;99.90;;;;;;4971371;28;20451;-55
2021/11/18 03:42:19;;;;;;;79.07;48.30;;;8.90;99.90;;;;;;4961803;28;20090;-54
2021/11/18 03:44:45;;;;;;;86.90;54.22;;;8.90;99.90;;;;;;4967143;28;20122;-54
2021/11/18 03:47:14;;;;;;;85.18;52.08;;;8.90;99.90;;;;;;4972832;28;20122;-55
2021/11/18 03:49:40;;;;;;;87.20;54.25;;;9.00;99.90;;;;;;4972105;28;20085;-54
2021/11/18 03:52:09;;;;;;;84.72;52.10;;;9.00;99.90;;;;;;4940611;28;20031;-54
2021/11/18 03:54:37;;;;;;;82.63;52.00;;;9.00;99.90;;;;;;4913083;29;20075;-54
2021/11/18 03:57:03;;;;;;;83.65;52.17;;;9.00;99.90;;;;;;4913793;29;20079;-56
2021/11/18 03:59:32;;;;;;;86.40;53.08;;;9.00;99.90;;;;;;4914416;29;20032;-54
2021/11/18 04:01:58;;;;;;;85.72;52.28;;;9.00;99.90;;;;;;4913321;29;20519;-54
2021/11/18 04:04:28;;;;;;;84.15;53.03;;;8.90;99.90;;;;;;4948516;29;20047;-54
2021/11/18 04:06:54;;;;;;;86.43;52.20;;;8.80;99.90;;;;;;4952351;29;20487;-56
2021/11/18 04:09:20;;;;;;;79.93;49.15;;;8.90;99.90;;;;;;4953077;29;20066;-54
2021/11/18 04:11:50;;;;;;;85.90;52.55;;;8.80;99.90;;;;;;4953053;28;20066;-55
2021/11/18 04:14:17;;;;;;;89.38;54.60;;;8.70;99.90;;;;;;4949177;28;20039;-54
2021/11/18 04:16:43;;;;;;;88.47;52.55;;;8.80;99.90;;;;;;4937802;28;20043;-55
2021/11/18 04:19:10;;;;;;;81.60;52.35;;;8.70;99.90;;;;;;4957527;28;20554;-55
2021/11/18 04:21:37;;;;;;;87.95;55.53;;;8.70;99.90;;;;;;4960888;28;20030;-54
2021/11/18 04:24:06;;;;;;;86.78;55.42;;;8.70;99.90;;;;;;4950465;28;20079;-55
2021/11/18 04:26:32;;;;;;;83.07;53.10;;;8.70;99.90;;;;;;4986434;28;20034;-55
2021/11/18 04:28:58;;;;;;;83.38;49.17;;;8.80;99.90;;;;;;5006545;28;20424;-55
2021/11/18 04:31:25;;;;;;;89.63;51.53;;;8.60;99.90;;;;;;5008873;28;20088;-55
2021/11/18 04:33:52;;;;;;;91.72;53.85;;;8.60;99.90;;;;;;5013702;28;20018;-54
2021/11/18 04:36:21;;;;;;;87.70;54.63;;;8.70;99.90;;;;;;5010017;28;20392;-55
2021/11/18 04:38:47;;;;;;;82.88;53.17;;;8.70;99.90;;;;;;5009103;28;20136;-55
2021/11/18 04:41:14;;;;;;;82.65;53.38;;;8.70;99.90;;;;;;5016121;28;20034;-54
2021/11/18 04:43:41;;;;;;;93.13;55.22;;;8.60;99.90;;;;;;5032888;28;20474;-54
2021/11/18 04:46:09;;;;;;;84.85;53.58;;;8.70;99.90;;;;;;5032278;28;20022;-55
2021/11/18 04:48:40;;;;;;;82.10;51.75;;;8.70;99.90;;;;;;5027501;28;20048;-55
2021/11/18 04:51:08;;;;;;;82.80;52.28;;;8.70;99.90;;;;;;5031369;28;20029;-55
2021/11/18 04:53:35;;;;;;;83.40;52.38;;;8.70;99.90;;;;;;5031542;28;20392;-54
2021/11/18 04:56:02;;;;;;;77.38;48.35;;;8.70;99.90;;;;;;5026730;28;20096;-56
2021/11/18 04:58:27;;;;;;;86.72;52.90;;;8.60;99.90;;;;;;4970854;28;20129;-54
2021/11/18 05:00:55;;;;;;;80.50;52.58;;;8.70;99.90;;;;;;4971169;28;20195;-55
2021/11/18 05:03:24;;;;;;;82.45;53.50;;;8.60;99.90;;;;;;4971303;28;20394;-54
2021/11/18 05:05:50;;;;;;;75.80;47.95;;;8.60;99.90;;;;;;4965344;28;20431;-54
2021/11/18 05:08:16;;;;;;;76.60;49.25;;;8.50;99.90;;;;;;4978503;28;20050;-55
2021/11/18 05:10:45;;;;;;;79.47;49.95;;;8.50;99.90;;;;;;4970826;28;20042;-55
2021/11/18 05:13:12;;;;;;;80.65;50.92;;;8.50;99.90;;;;;;4977926;28;20093;-54
2021/11/18 05:15:40;;;;;;;85.13;55.10;;;8.50;99.90;;;;;;4991241;28;20117;-54
2021/11/18 05:18:07;;;;;;;76.28;45.60;;;8.50;99.90;;;;;;4990843;28;20050;-54
2021/11/18 05:20:34;;;;;;;84.15;52.80;;;8.50;99.90;;;;;;4990846;28;20097;-54
2021/11/18 05:23:01;;;;;;;82.60;47.28;;;8.50;99.90;;;;;;4990982;28;20061;-55
2021/11/18 05:25:29;;;;;;;83.22;52.95;;;8.50;99.90;;;;;;4989424;28;20035;-54
2021/11/18 05:27:55;;;;;;;82.88;47.58;;;8.40;99.90;;;;;;4962904;28;20082;-55
2021/11/18 05:30:26;;;;;;;80.80;50.55;;;8.30;99.90;;;;;;4987425;28;20034;-55
2021/11/18 05:32:53;;;;;;;75.82;46.13;;;8.40;99.90;;;;;;5028527;28;20116;-54
2021/11/18 05:35:19;;;;;;;81.82;50.85;;;8.30;99.90;;;;;;5031705;28;20504;-56
2021/11/18 05:37:45;;;;;;;72.35;44.38;;;8.40;99.90;;;;;;4985884;28;20486;-55
2021/11/18 05:40:12;;;;;;;73.40;46.08;;;8.30;99.90;;;;;;5027821;28;20025;-56
2021/11/18 05:42:39;;;;;;;70.22;45.10;;;8.30;99.90;;;;;;5013338;28;20425;-49
2021/11/18 05:45:07;;;;;;;89.00;53.20;;;8.40;99.90;;;;;;5029336;28;20033;-55
2021/11/18 05:47:33;;;;;;;86.03;51.30;;;8.40;99.90;;;;;;5029461;28;20421;-51
2021/11/18 05:49:59;;;;;;;83.72;49.72;;;8.30;99.90;;;;;;4977850;28;20034;-52
2021/11/18 05:52:26;;;;;;;79.68;48.53;;;8.40;99.90;;;;;;5028558;28;20029;-53
2021/11/18 05:54:53;;;;;;;86.28;52.17;;;8.40;99.90;;;;;;5031487;28;20028;-51
2021/11/18 05:57:19;;;;;;;81.88;51.17;;;8.50;99.90;;;;;;5031365;28;20033;-51
2021/11/18 05:59:45;;;;;;;61.75;35.25;;;8.40;99.90;;;;;;4963999;28;20034;-51
2021/11/18 06:02:11;;;;;;;85.35;51.95;;;8.40;99.90;;;;;;5009035;28;20035;-52
2021/11/18 06:04:37;;;;;;;75.38;43.17;;;8.50;99.90;;;;;;5007756;28;20613;-51
2021/11/18 06:07:04;;;;;;;82.47;52.03;;;8.40;99.90;;;;;;4938439;28;20046;-51
2021/11/18 06:09:30;;;;;;;84.78;49.78;;;8.40;99.90;;;;;;4942045;28;20031;-50
2021/11/18 06:11:55;;;;;;;82.75;52.92;;;8.30;99.90;;;;;;4974908;28;20057;-51
2021/11/18 06:14:22;;;;;;;86.82;53.33;;;8.20;99.90;;;;;;4974838;28;20038;-51
2021/11/18 06:16:47;;;;;;;79.50;49.80;;;8.20;99.90;;;;;;4926685;28;20042;-51
2021/11/18 06:19:14;;;;;;;86.32;54.60;;;8.30;99.90;;;;;;4962771;28;20031;-51
2021/11/18 06:21:44;;;;;;;81.88;50.75;;;8.30;99.90;;;;;;4959690;28;20122;-51
2021/11/18 06:24:12;;;;;;;79.57;49.70;;;8.40;99.90;;;;;;4936123;29;20055;-51
2021/11/18 06:26:39;;;;;;;78.43;49.53;;;8.40;99.90;;;;;;4938574;29;20075;-51
2021/11/18 06:29:05;;;;;;;76.22;45.75;;;8.40;99.90;;;;;;4935949;29;20035;-51
2021/11/18 06:31:31;;;;;;;75.32;43.78;;;8.50;99.90;;;;;;4904221;29;20040;-51
2021/11/18 06:33:57;;;;;;;75.15;46.78;;;8.50;99.90;;;;;;4936239;29;20040;-51
2021/11/18 06:36:23;;;;;;;78.60;47.00;;;8.50;99.90;;;;;;4936872;29;20035;-51
2021/11/18 06:38:51;;;;;;;75.55;44.10;;;8.60;99.90;;;;;;4983991;28;20085;-51
2021/11/18 06:41:19;;;;;;;73.00;45.50;;;8.60;99.90;;;;;;4994540;28;20046;-51
2021/11/18 06:43:46;;;;;;;74.20;45.72;;;8.60;99.90;;;;;;4994496;28;20038;-51
2021/11/18 06:46:12;;;;;;;74.00;45.42;;;8.60;99.90;;;;;;4994344;28;20418;-51
2021/11/18 06:48:39;;;;;;;74.28;46.38;;;8.70;99.90;;;;;;4994275;28;20049;-51
2021/11/18 06:51:08;;;;;;;75.03;45.42;;;8.70;99.90;;;;;;4994021;28;20034;-51
2021/11/18 06:53:36;;;;;;;80.15;47.47;;;8.80;99.90;;;;;;4991226;28;20034;-51
2021/11/18 06:56:04;;;;;;;76.50;45.80;;;8.70;99.90;;;;;;5010572;28;20037;-51
2021/11/18 06:58:29;;;;;;;82.63;49.35;;;8.80;99.90;;;;;;4996574;28;20073;-51
2021/11/18 07:00:56;;;;;;;89.18;53.83;;;9.00;99.90;;;;;;4967316;28;20070;-52
2021/11/18 07:03:23;;;;;;;84.55;51.42;;;9.00;99.90;;;;;;5015261;28;20026;-51
2021/11/18 07:05:50;;;;;;;74.97;45.78;;;9.00;99.90;;;;;;5015207;28;20034;-51
2021/11/18 07:08:15;;;;;;;85.40;50.80;;;8.90;99.90;;;;;;5015295;28;20033;-51
2021/11/18 07:10:43;;;;;;;77.93;47.83;;;9.10;99.90;;;;;;4996681;28;20034;-51
2021/11/18 07:13:32;;;;;;;74.35;47.00;;;9.10;99.90;;;;;;5015087;28;20049;-51
2021/11/18 07:16:00;;;;;;;76.68;46.90;;;9.10;99.90;;;;;;5014693;28;20497;-53
2021/11/18 07:18:27;;;;;;;68.22;44.53;;;9.10;99.90;;;;;;5014719;28;20034;-52
2021/11/18 07:20:53;;;;;;;78.63;49.33;;;9.10;99.90;;;;;;5019865;28;20082;-52
2021/11/18 07:23:22;;;;;;;77.93;48.17;;;9.20;99.90;;;;;;5034397;28;20060;-51
2021/11/18 07:25:51;;;;;;;79.65;46.05;;;9.20;99.90;;;;;;5034703;28;20496;-51
2021/11/18 07:28:17;;;;;;;70.20;44.17;;;9.20;99.90;;;;;;5031364;28;20037;-51
2021/11/18 07:30:43;;;;;;;82.97;42.67;;;9.30;99.90;;;;;;5034434;28;20030;-51
2021/11/18 07:33:11;;;;;;;77.75;47.15;;;9.20;99.90;;;;;;5024883;28;20033;-51
2021/11/18 07:35:37;;;;;;;77.40;45.85;;;9.20;99.90;;;;;;5032129;28;20036;-51
2021/11/18 07:38:03;;;;;;;66.57;41.67;;;9.30;99.90;;;;;;5034221;28;20037;-51
2021/11/18 07:40:29;;;;;;;69.60;42.63;;;9.30;99.90;;;;;;5034155;28;20064;-51
2021/11/18 07:42:56;;;;;;;70.60;45.70;;;9.30;99.90;;;;;;4983001;28;20095;-51
2021/11/18 07:45:28;;;;;;;72.35;44.47;;;9.20;99.90;;;;;;5034174;28;20036;-51
2021/11/18 07:47:55;;;;;;;76.25;46.67;;;9.20;99.90;;;;;;5034324;28;20117;-51
2021/11/18 07:50:21;;;;;;;66.43;41.80;;;9.20;99.90;;;;;;4983296;28;20068;-51
2021/11/18 07:52:47;;;;;;;75.70;46.50;;;9.20;99.90;;;;;;5034103;28;20029;-51
2021/11/18 07:55:18;;;;;;;69.57;42.83;;;9.30;99.90;;;;;;5034100;28;20373;-51
2021/11/18 07:57:44;;;;;;;62.75;39.60;;;9.20;99.90;;;;;;5033794;28;20037;-51
2021/11/18 08:00:13;;;;;;;64.25;39.38;;;9.20;99.90;;;;;;5033940;28;20030;-52
2021/11/18 08:02:40;;;;;;;68.55;41.83;;;9.10;99.90;;;;;;4956367;28;20133;-53
2021/11/18 08:05:07;;;;;;;65.15;42.75;;;9.10;99.90;;;;;;4941871;28;20053;-51
2021/11/18 08:07:33;;;;;;;80.38;51.05;;;9.20;99.90;;;;;;4931635;28;20047;-51
2021/11/18 08:09:59;;;;;;;73.57;46.67;;;9.20;99.90;;;;;;4971002;28;20034;-51
2021/11/18 08:12:24;;;;;;;73.43;42.00;;;9.30;99.90;;;;;;4970668;28;20030;-51
2021/11/18 08:14:50;;;;;;;73.03;47.08;;;9.30;99.90;;;;;;4964379;28;20058;-50
2021/11/18 08:17:17;;;;;;;54.10;36.53;;;9.40;99.90;;;;;;4972128;28;20053;-51
2021/11/18 08:19:43;;;;;;;71.75;46.50;;;9.30;99.90;;;;;;4967579;28;20059;-51
2021/11/18 08:22:10;;;;;;;65.05;42.17;;;9.40;99.90;;;;;;4972499;28;20074;-53
2021/11/18 08:24:35;;;;;;;50.33;29.63;;;9.40;99.90;;;;;;4972629;28;20045;-51
2021/11/18 08:27:02;;;;;;;75.60;45.58;;;9.30;99.90;;;;;;4978824;28;20031;-49
2021/11/18 08:29:29;;;;;;;65.70;45.55;;;9.30;99.90;;;;;;4973129;28;20047;-50
2021/11/18 08:31:56;;;;;;;61.05;39.75;;;9.30;99.90;;;;;;4972050;28;20031;-54
2021/11/18 08:34:22;;;;;;;60.08;41.22;;;9.40;99.90;;;;;;4969841;28;20927;-54
2021/11/18 08:36:50;;;;;;;64.25;40.63;;;9.50;99.90;;;;;;4975151;28;20053;-54
2021/11/18 08:39:20;;;;;;;64.47;40.72;;;9.50;99.90;;;;;;4993093;28;20067;-54
2021/11/18 08:54:32;;;;;;;69.68;42.60;;;9.50;99.90;;;;;;5162120;27;20178;-54
2021/11/18 08:56:59;;;;;;;59.05;38.80;;;9.90;99.90;;;;;;5144474;27;20474;-54
2021/11/18 08:59:26;;;;;;;58.42;40.13;;;9.80;99.90;;;;;;5136613;27;20031;-54
2021/11/18 09:01:58;;;;;;;56.90;37.40;;;9.80;99.90;;;;;;5134821;27;20057;-54
2021/11/18 09:04:25;;;;;;;58.15;37.13;;;9.80;99.90;;;;;;5138277;27;20103;-54
2021/11/18 09:06:52;;;;;;;56.65;36.95;;;9.60;99.90;;;;;;5143316;27;20438;-54
2021/11/18 09:09:22;;;;;;;56.85;37.50;;;9.70;99.90;;;;;;5130614;27;20476;-54
2021/11/18 09:11:48;;;;;;;54.40;31.65;;;9.70;99.90;;;;;;5132718;27;20035;-54
2021/11/18 09:14:16;;;;;;;56.55;36.10;;;9.70;99.90;;;;;;5143010;27;20126;-54
2021/11/18 09:16:43;;;;;;;54.45;35.92;;;9.70;99.90;;;;;;5135064;27;20027;-54
2021/11/18 09:19:13;;;;;;;52.75;35.65;;;9.80;99.90;;;;;;5138036;27;20027;-54
2021/11/18 09:21:40;;;;;;;54.03;35.17;;;9.80;99.90;;;;;;5134364;27;20015;-54
2021/11/18 09:24:17;;;;;;;49.65;34.50;;;9.80;99.90;;;;;;5134385;27;20042;-54
2021/11/18 09:26:47;;;;;;;53.92;35.28;;;9.80;99.90;;;;;;5134344;27;20023;-54
2021/11/18 09:29:13;;;;;;;56.13;34.15;;;9.80;99.90;;;;;;5142360;27;20039;-54
2021/11/18 09:31:39;;;;;;;52.53;35.05;;;9.80;99.90;;;;;;5137565;27;20034;-54
2021/11/18 09:34:05;;;;;;;50.70;29.85;;;9.80;99.90;;;;;;5143229;27;20027;-54
2021/11/18 09:36:31;;;;;;;47.20;29.08;;;9.80;99.90;;;;;;5146321;27;20035;-54
2021/11/18 09:38:59;;;;;;;44.13;29.60;;;9.80;99.90;;;;;;5159908;27;20067;-54
2021/11/18 09:41:25;;;;;;;44.20;27.95;;;9.80;99.90;;;;;;5142906;27;20119;-54
2021/11/18 09:44:03;;;;;;;56.58;33.42;;;9.70;99.90;;;;;;5138536;27;20070;-54
2021/11/18 09:46:59;;;;;;;56.10;36.90;;;9.80;99.90;;;;;;5147864;27;20039;-54
2021/11/18 09:49:39;;;;;;;57.17;34.47;;;9.80;99.90;;;;;;5142471;27;20075;-54
2021/11/18 09:52:13;;;;;;;57.67;38.00;;;9.80;99.90;;;;;;5144036;27;20041;-54
2021/11/18 09:54:59;;;;;;;54.95;38.28;;;9.90;99.90;;;;;;5127153;27;20032;-54
2021/11/18 09:57:52;;;;;;;52.97;34.30;;;9.90;99.90;;;;;;5095790;27;20542;-54
2021/11/18 10:00:43;;;;;;;59.20;36.70;;;9.90;99.90;;;;;;5128420;27;20020;-54
2021/11/18 10:03:12;;;;;;;47.72;28.17;;;9.90;99.90;;;;;;5124226;27;20050;-54
2021/11/18 10:06:03;;;;;;;54.45;33.45;;;9.90;99.90;;;;;;5131813;27;20056;-54
2021/11/18 10:08:39;;;;;;;55.63;34.33;;;9.90;99.90;;;;;;5121307;27;20063;-54
2021/11/18 10:11:53;;;;;;;52.90;33.55;;;10.00;99.90;;;;;;5110651;27;20445;-51
2021/11/18 10:14:24;;;;;;;56.17;35.63;;;10.10;99.90;;;;;;5050445;28;20033;-51
2021/11/18 10:17:19;;;;;;;48.20;32.63;;;10.10;99.90;;;;;;5057736;28;20033;-49
2021/11/18 10:20:07;;;;;;;44.83;29.63;;;10.00;99.90;;;;;;5017683;28;20036;-49
2021/11/18 10:22:38;;;;;;;44.30;30.45;;;10.10;99.90;;;;;;5049698;28;20040;-51
2021/11/18 10:25:07;;;;;;;39.72;25.70;;;10.20;99.90;;;;;;5049497;28;20047;-61
2021/11/18 10:27:37;;;;;;;41.50;25.77;;;10.10;99.90;;;;;;5050934;28;20037;-49
2021/11/18 10:30:30;;;;;;;36.70;26.40;;;10.10;99.90;;;;;;5050164;28;20060;-50
2021/11/18 10:33:07;;;;;;;49.90;31.95;;;10.10;99.90;;;;;;5036073;28;20041;-54
2021/11/18 10:35:35;;;;;;;38.97;26.98;;;10.30;99.90;;;;;;5046521;28;20116;-57
2021/11/18 10:51:32;;;;;;;33.20;24.30;;;11.60;99.90;;;;;;5042160;28;20390;-51
2021/11/18 10:54:03;;;;;;;31.70;22.20;;;10.70;99.90;;;;;;5026156;28;20460;-49
2021/11/18 10:56:52;;;;;;;31.17;21.93;;;10.60;99.90;;;;;;5028129;28;20077;-49
2021/11/18 10:59:37;;;;;;;38.17;25.48;;;10.70;99.90;;;;;;5021285;28;20468;-48
2021/11/18 11:02:16;;;;;;;34.35;22.52;;;10.70;99.90;;;;;;5025917;28;20392;-47
2021/11/18 11:04:48;;;;;;;58.38;32.50;;;10.70;99.90;;;;;;5027548;28;20033;-49
2021/11/18 11:07:14;;;;;;;46.13;27.55;;;10.70;99.90;;;;;;5040688;28;20073;-50
2021/11/18 11:09:47;;;;;;;35.35;22.63;;;10.70;99.90;;;;;;5028217;28;20460;-51
2021/11/18 11:12:31;;;;;;;44.40;26.48;;;10.50;99.90;;;;;;5032323;28;20044;-51
2021/11/18 11:15:24;;;;;;;28.48;17.02;;;10.50;99.90;;;;;;5043721;28;20038;-54
2021/11/18 11:18:11;;;;;;;38.60;23.70;;;10.40;99.90;;;;;;5045369;28;20239;-52
2021/11/18 11:20:52;;;;;;;47.70;28.10;;;10.60;99.90;;;;;;5044911;28;20044;-53
2021/11/18 11:23:36;;;;;;;35.17;23.55;;;10.60;99.90;;;;;;5049440;28;20447;-54
2021/11/18 11:26:29;;;;;;;28.38;20.38;;;10.60;99.90;;;;;;5045868;28;20037;-53
2021/11/18 11:29:02;;;;;;;26.73;19.63;;;10.60;99.90;;;;;;5042778;28;20091;-52
2021/11/18 11:31:33;;;;;;;30.02;20.25;;;10.60;99.90;;;;;;5011238;28;20048;-53
2021/11/18 11:34:16;;;;;;;29.20;20.75;;;10.50;99.90;;;;;;5044720;28;20114;-55
2021/11/18 11:37:07;;;;;;;28.92;20.40;;;10.40;99.90;;;;;;5046285;28;20028;-52
2021/11/18 11:39:55;;;;;;;35.60;24.38;;;10.40;99.90;;;;;;5045065;28;20037;-52
2021/11/18 11:42:52;;;;;;;34.65;23.48;;;10.30;99.90;;;;;;5045016;28;20033;-50
2021/11/18 11:45:26;;;;;;;27.88;17.25;;;10.40;99.90;;;;;;5033964;28;20132;-52
2021/11/18 11:48:03;;;;;;;25.17;16.85;;;10.40;99.90;;;;;;5041469;28;20040;-51
2021/11/18 11:50:49;;;;;;;32.92;21.55;;;10.40;99.90;;;;;;5024145;28;20109;-53
2021/11/18 11:53:34;;;;;;;35.35;23.10;;;10.40;99.90;;;;;;5017281;28;20088;-50
2021/11/18 11:56:28;;;;;;;30.08;19.80;;;10.40;99.90;;;;;;5013131;28;20045;-50
2021/11/18 11:59:18;;;;;;;41.33;23.73;;;10.40;99.90;;;;;;5014310;28;20179;-52
2021/11/18 12:01:51;;;;;;;36.05;23.42;;;10.30;99.90;;;;;;5014192;28;20508;-45
2021/11/18 12:04:51;;;;;;;30.45;20.98;;;10.40;99.90;;;;;;5012094;28;20121;-49
2021/11/18 12:07:26;;;;;;;25.77;17.55;;;10.50;99.90;;;;;;5023152;28;20038;-49
2021/11/18 12:09:52;;;;;;;22.13;16.05;;;10.60;99.90;;;;;;5012384;28;20049;-46
2021/11/18 12:12:34;;;;;;;23.77;15.63;;;10.60;99.90;;;;;;5013417;28;20370;-48
2021/11/18 12:15:02;;;;;;;;;;;10.60;99.90;;;;;;5013819;28;20053;-51
2021/11/18 12:17:52;;;;;;;22.67;16.55;;;10.60;99.90;;;;;;5013478;28;19920;-51
2021/11/18 12:20:24;;;;;;;22.25;16.23;;;10.60;99.90;;;;;;5012699;28;20434;-52
2021/11/18 12:23:00;;;;;;;22.55;16.10;;;10.70;99.90;;;;;;5012653;28;20381;-48
2021/11/18 12:25:37;;;;;;;24.50;16.55;;;10.70;99.90;;;;;;5011602;28;20036;-49
2021/11/18 12:28:12;;;;;;;22.98;15.32;;;10.70;99.90;;;;;;5013454;28;20033;-50
2021/11/18 12:30:43;;;;;;;23.13;15.73;;;10.70;99.90;;;;;;5012850;28;20040;-52
2021/11/18 12:33:19;;;;;;;22.80;15.48;;;10.60;99.90;;;;;;5013009;28;20029;-51
2021/11/18 12:36:09;;;;;;;27.17;18.48;;;10.60;99.90;;;;;;5013942;28;20455;-50
2021/11/18 12:38:40;;;;;;;26.00;17.27;;;10.60;99.90;;;;;;5020588;28;20032;-53
2021/11/18 12:41:09;;;;;;;26.05;17.80;;;10.50;99.90;;;;;;5012721;28;20034;-53
2021/11/18 12:44:01;;;;;;;25.45;17.63;;;10.50;99.90;;;;;;5012849;28;20025;-53
2021/11/18 12:46:30;;;;;;;31.50;17.63;;;10.50;99.90;;;;;;5004130;28;20092;-51
2021/11/18 12:48:58;;;;;;;24.95;17.25;;;10.40;99.90;;;;;;5005976;28;20026;-53
2021/11/18 12:51:45;;;;;;;19.17;13.35;;;10.40;99.90;;;;;;5013634;28;20070;-53
2021/11/18 12:54:17;;;;;;;23.10;16.65;;;10.30;99.90;;;;;;5008158;28;20076;-52
2021/11/18 12:56:52;;;;;;;;;;;10.30;99.90;;;;;;5013643;28;20073;-52
2021/11/18 12:59:36;;;;;;;19.35;14.32;;;10.40;99.90;;;;;;5013179;28;19987;-51
2021/11/18 13:02:05;;;;;;;22.00;14.60;;;10.40;99.90;;;;;;5012692;28;20116;-52
2021/11/18 13:04:45;;;;;;;23.70;16.67;;;10.40;99.90;;;;;;5027614;28;20041;-52
2021/11/18 13:07:54;;;;;;;21.63;14.85;;;10.50;99.90;;;;;;5013109;28;20120;-52
2021/11/18 13:10:19;;;;;;;23.15;16.33;;;10.70;99.90;;;;;;4958387;28;20178;-53
2021/11/18 13:13:03;;;;;;;27.77;18.58;;;10.70;99.90;;;;;;4990978;28;20042;-53
2021/11/18 13:15:43;;;;;;;28.95;18.98;;;10.80;99.90;;;;;;4991058;28;20107;-53
2021/11/18 13:18:44;;;;;;;22.95;14.90;;;10.60;99.90;;;;;;4991503;28;20027;-52